Time;durP1;ratioP1;P1;durP2;ratioP2;P2;SDS_P1;SDS_P2;PMS_P1;PMS_P2;Temp;Humidity;BMP_temperature;BMP_pressure;BME280_temperature;BME280_humidity;BME280_pressure;Samples;Min_cycle;Max_cycle;Signal;HPM_P1;HPM_P2
2022/05/11 00:00:26;;;;;;;6.10;2.97;;;;;;;23.38;65.67;101195.16;5089406;28;20712;-53
2022/05/11 00:02:51;;;;;;;8.10;2.60;;;;;;;23.61;63.71;101200.03;5077392;28;20067;-51
2022/05/11 00:05:17;;;;;;;8.70;2.78;;;;;;;23.57;63.96;101193.50;5088518;28;20049;-51
2022/05/11 00:07:42;;;;;;;6.30;2.38;;;;;;;23.39;63.79;101191.34;5083182;28;20032;-52
2022/05/11 00:10:12;;;;;;;8.07;2.90;;;;;;;23.39;63.57;101196.78;5081659;28;20147;-50
2022/05/11 00:12:40;;;;;;;9.27;2.83;;;;;;;23.43;63.36;101189.69;5090746;28;20033;-52
2022/05/11 00:15:07;;;;;;;11.57;3.13;;;;;;;23.29;64.10;101200.34;5078177;28;20288;-50
2022/05/11 00:17:33;;;;;;;7.77;2.83;;;;;;;23.22;62.84;101202.50;5086299;28;20266;-49
2022/05/11 00:19:59;;;;;;;6.38;2.83;;;;;;;23.47;61.66;101186.16;5085236;28;20276;-52
2022/05/11 00:22:24;;;;;;;5.95;2.75;;;;;;;23.61;61.20;101180.94;5079312;28;20044;-54
2022/05/11 00:24:50;;;;;;;6.45;2.80;;;;;;;23.46;60.16;101179.06;5090722;28;20039;-53
2022/05/11 00:27:15;;;;;;;9.30;2.88;;;;;;;23.67;60.26;101170.84;5079220;28;20063;-50
2022/05/11 00:29:41;;;;;;;6.87;2.50;;;;;;;23.84;59.08;101173.25;5085201;28;20060;-50
2022/05/11 00:32:07;;;;;;;11.63;3.00;;;;;;;23.57;59.14;101168.09;5086278;28;20066;-54
2022/05/11 00:34:32;;;;;;;;;;;;;;;23.80;58.41;101157.69;5078413;28;20037;-55
2022/05/11 00:36:59;;;;;;;10.13;3.13;;;;;;;23.76;58.59;101157.44;5090535;28;19932;-53
2022/05/11 00:39:25;;;;;;;9.60;3.50;;;;;;;23.80;57.55;101155.78;5080350;28;20028;-53
2022/05/11 00:41:53;;;;;;;4.90;2.50;;;;;;;23.58;57.97;101158.81;5083896;28;20291;-54
2022/05/11 00:44:18;;;;;;;5.97;2.67;;;;;;;23.37;59.36;101149.84;5087811;28;20276;-53
2022/05/11 00:46:56;;;;;;;6.17;2.60;;;;;;;23.51;58.60;101145.47;5076185;28;20270;-53
2022/05/11 00:49:38;;;;;;;7.17;2.70;;;;;;;23.25;59.53;101139.19;5087847;28;20029;-54
2022/05/11 00:52:19;;;;;;;9.00;3.00;;;;;;;23.65;58.01;101131.25;5085422;28;20277;-51
2022/05/11 00:55:02;;;;;;;8.23;2.87;;;;;;;23.51;58.71;101134.53;5077315;28;20297;-50
2022/05/11 00:57:50;;;;;;;7.33;3.00;;;;;;;23.42;59.53;101125.28;5087249;28;20277;-55
2022/05/11 01:00:17;;;;;;;8.37;3.00;;;;;;;23.31;60.51;101128.03;5087457;28;20348;-51
2022/05/11 01:02:47;;;;;;;8.23;3.63;;;;;;;23.30;62.20;101126.41;5077428;28;20274;-49
2022/05/11 01:05:12;;;;;;;11.20;3.10;;;;;;;23.25;62.98;101126.38;5089247;28;20265;-54
2022/05/11 01:07:39;;;;;;;6.07;3.00;;;;;;;23.46;62.05;101116.28;5082232;28;20284;-53
2022/05/11 01:10:06;;;;;;;10.77;3.28;;;;;;;23.17;63.17;101122.28;5084885;28;20059;-53
2022/05/11 01:12:37;;;;;;;12.70;3.77;;;;;;;23.57;61.73;101116.25;5093373;28;20032;-53
2022/05/11 01:15:04;;;;;;;6.93;3.93;;;;;;;23.39;62.45;101120.38;5080584;28;20296;-53
2022/05/11 01:17:36;;;;;;;6.73;3.80;;;;;;;22.97;64.44;101114.94;5090537;28;20277;-55
2022/05/11 01:20:05;;;;;;;15.30;4.20;;;;;;;22.92;65.25;101110.28;5077244;28;20292;-48
2022/05/11 01:22:39;;;;;;;8.07;4.20;;;;;;;22.74;67.74;101103.47;5092803;28;20291;-48
2022/05/11 01:25:07;;;;;;;9.80;5.53;;;;;;;23.12;65.14;101105.13;5064401;28;20284;-50
2022/05/11 01:27:36;;;;;;;10.10;4.27;;;;;;;22.92;66.24;101107.56;5089995;28;20270;-52
2022/05/11 01:30:21;;;;;;;11.20;4.33;;;;;;;22.50;67.71;101103.16;5088649;28;20287;-52
2022/05/11 01:32:50;;;;;;;11.43;4.70;;;;;;;22.61;66.06;101109.47;5080652;28;20293;-53
2022/05/11 01:35:46;;;;;;;8.07;3.57;;;;;;;22.88;65.16;101094.75;5091279;28;20316;-50
2022/05/11 01:38:17;;;;;;;9.93;4.13;;;;;;;22.97;63.20;101100.50;5090081;28;20273;-53
2022/05/11 01:40:43;;;;;;;10.10;3.00;;;;;;;22.68;63.59;101101.00;5080393;28;20274;-51
2022/05/11 01:43:19;;;;;;;9.65;3.55;;;;;;;22.89;62.27;101091.75;5092641;28;20274;-49
2022/05/11 01:45:45;;;;;;;7.05;3.25;;;;;;;22.75;62.64;101093.38;5085843;28;20099;-53
2022/05/11 01:48:10;;;;;;;8.47;3.20;;;;;;;22.82;61.49;101090.38;5084496;28;20041;-55
2022/05/11 01:50:36;;;;;;;7.73;3.03;;;;;;;22.88;61.57;101079.19;5092760;28;20091;-54
2022/05/11 01:53:03;;;;;;;5.83;3.17;;;;;;;22.69;62.29;101078.09;5080411;28;20055;-48
2022/05/11 01:55:29;;;;;;;8.53;2.83;;;;;;;22.82;62.31;101076.75;5089941;28;20288;-51
2022/05/11 01:57:54;;;;;;;6.93;3.10;;;;;;;23.11;60.88;101076.19;5087104;28;20269;-51
2022/05/11 02:00:20;;;;;;;10.05;3.28;;;;;;;23.12;60.12;101077.84;5083162;28;20040;-52
2022/05/11 02:02:45;;;;;;;8.03;4.50;;;;;;;22.58;62.37;101063.66;5093030;28;20037;-54
2022/05/11 02:07:55;;;;;;;8.23;3.40;;;;;;;22.65;62.57;101068.84;5086226;28;20037;-51
2022/05/11 02:10:26;;;;;;;7.43;3.15;;;;;;;22.27;64.29;101074.47;5090250;28;20360;-52
2022/05/11 02:12:52;;;;;;;8.60;3.20;;;;;;;22.97;60.59;101076.75;5079765;28;20052;-52
2022/05/11 02:15:18;;;;;;;4.82;2.63;;;;;;;22.84;60.46;101071.84;5091510;28;20286;-52
2022/05/11 02:17:48;;;;;;;7.03;3.50;;;;;;;22.56;61.58;101074.00;5085039;28;20044;-51
2022/05/11 02:20:16;;;;;;;8.20;2.80;;;;;;;22.76;60.09;101070.50;5082914;28;20277;-49
2022/05/11 02:22:42;;;;;;;4.27;2.53;;;;;;;22.77;60.61;101066.66;5092654;28;20341;-50
2022/05/11 02:25:08;;;;;;;6.75;2.92;;;;;;;22.70;60.04;101071.56;5079825;28;20289;-49
2022/05/11 02:27:35;;;;;;;6.47;3.33;;;;;;;22.69;59.75;101076.22;5088847;28;20047;-51
2022/05/11 02:30:01;;;;;;;6.90;3.67;;;;;;;22.58;60.33;101072.66;5087182;28;20277;-51
2022/05/11 02:32:27;;;;;;;10.32;3.20;;;;;;;22.70;59.89;101077.00;5081802;28;20041;-51
2022/05/11 02:35:12;;;;;;;11.67;3.33;;;;;;;22.92;59.17;101072.09;5092351;28;20040;-50
2022/05/11 02:37:42;;;;;;;4.93;2.47;;;;;;;22.78;60.17;101081.94;5083863;28;20281;-49
2022/05/11 02:40:08;;;;;;;8.43;3.27;;;;;;;22.59;60.46;101078.91;5084272;28;20309;-49
2022/05/11 02:42:34;;;;;;;8.43;3.75;;;;;;;22.51;62.05;101080.28;5091403;28;20407;-50
2022/05/11 02:44:59;;;;;;;8.15;3.63;;;;;;;22.68;61.09;101079.19;5079285;28;20029;-50
2022/05/11 02:47:25;;;;;;;12.77;3.85;;;;;;;22.82;60.49;101077.56;5089980;28;20028;-53
2022/05/11 02:49:51;;;;;;;6.70;3.53;;;;;;;22.45;62.71;101084.03;5085223;28;20032;-51
2022/05/11 02:52:17;;;;;;;8.43;3.60;;;;;;;22.45;63.08;101084.88;5082320;28;20049;-50
2022/05/11 02:54:46;;;;;;;;;;;;;;;22.08;65.85;101077.69;5092624;28;20103;-52
2022/05/11 02:57:16;;;;;;;12.03;3.90;;;;;;;22.26;65.45;101078.28;5075614;28;19923;-52
2022/05/11 02:59:44;;;;;;;7.93;3.77;;;;;;;22.20;65.75;101066.56;5083855;28;20265;-52
2022/05/11 03:02:09;;;;;;;5.47;3.00;;;;;;;22.01;66.81;101058.88;5083521;28;20277;-51
2022/05/11 03:04:36;;;;;;;6.68;3.40;;;;;;;22.01;67.16;101060.78;5091276;28;20300;-52
2022/05/11 03:07:02;;;;;;;10.35;3.45;;;;;;;21.86;68.50;101053.38;5078706;28;20041;-49
2022/05/11 03:09:28;;;;;;;6.43;3.60;;;;;;;21.76;70.06;101049.53;5089281;28;20071;-53
2022/05/11 03:11:54;;;;;;;9.63;3.58;;;;;;;21.49;71.89;101034.13;5084984;28;20040;-52
2022/05/11 03:14:19;;;;;;;8.73;3.42;;;;;;;21.95;68.27;101045.53;5082080;28;20048;-51
2022/05/11 03:16:44;;;;;;;6.40;3.55;;;;;;;22.01;66.58;101044.44;5091665;28;20044;-54
2022/05/11 03:19:10;;;;;;;6.00;3.27;;;;;;;22.04;66.84;101038.47;5075233;28;20043;-54
2022/05/11 03:21:37;;;;;;;;;;;;;;;21.83;67.81;101035.66;5083056;28;20033;-54
2022/05/11 03:24:03;;;;;;;6.20;3.53;;;;;;;22.03;67.47;101037.66;5084161;28;19995;-55
2022/05/11 03:26:29;;;;;;;14.50;3.60;;;;;;;22.12;66.83;101028.97;5089465;28;20273;-53
2022/05/11 03:28:56;;;;;;;9.48;3.38;;;;;;;21.70;70.76;101028.81;5078310;28;20075;-53
2022/05/11 03:31:22;;;;;;;6.97;3.60;;;;;;;22.02;69.15;101027.81;5089840;28;20062;-55
2022/05/11 03:36:32;;;;;;;8.57;3.10;;;;;;;22.42;66.01;101022.75;5079014;28;20109;-50
2022/05/11 03:38:58;;;;;;;9.53;3.47;;;;;;;21.90;68.61;101028.06;5090531;28;20281;-52
2022/05/11 03:41:24;;;;;;;7.25;3.58;;;;;;;22.23;67.55;101029.78;5089370;28;20376;-51
2022/05/11 03:43:49;;;;;;;9.98;3.50;;;;;;;22.44;64.89;101019.72;5083717;28;20044;-51
2022/05/11 03:46:15;;;;;;;6.70;3.65;;;;;;;22.18;66.41;101023.25;5082391;28;20067;-51
2022/05/11 03:48:41;;;;;;;6.05;3.58;;;;;;;22.26;65.96;101018.34;5090808;28;20040;-54
2022/05/11 03:51:07;;;;;;;14.17;7.97;;;;;;;22.35;66.48;101011.28;5077882;28;20051;-51
2022/05/11 03:53:34;;;;;;;9.02;2.88;;;;;;;21.97;68.37;101016.13;5088069;28;20297;-53
2022/05/11 03:56:00;;;;;;;6.00;3.37;;;;;;;21.84;69.88;101018.25;5084686;28;20033;-51
2022/05/11 03:58:25;;;;;;;8.18;3.33;;;;;;;21.95;69.98;101018.31;5080778;28;20274;-53
2022/05/11 04:00:51;;;;;;;19.88;9.15;;;;;;;22.58;66.32;100999.06;5090941;28;20063;-55
2022/05/11 04:03:17;;;;;;;8.05;4.05;;;;;;;22.65;64.70;101009.69;5078718;28;20084;-50
2022/05/11 04:05:42;;;;;;;12.45;5.18;;;;;;;22.49;65.15;101004.25;5086865;28;20033;-52
2022/05/11 04:08:07;;;;;;;7.22;4.13;;;;;;;22.49;64.67;101012.41;5086004;28;20036;-52
2022/05/11 04:10:33;;;;;;;9.73;3.97;;;;;;;22.66;62.96;101005.06;5079679;28;20086;-51
2022/05/11 04:13:03;;;;;;;6.45;3.55;;;;;;;22.69;61.86;101002.59;5090788;28;20096;-52
2022/05/11 04:15:30;;;;;;;9.07;3.73;;;;;;;22.31;64.19;100999.28;5080240;28;20032;-52
2022/05/11 04:17:55;;;;;;;8.32;3.83;;;;;;;21.98;64.11;101002.22;5084770;28;20273;-53
2022/05/11 04:20:21;;;;;;;8.00;3.38;;;;;;;22.48;61.74;101008.06;5074347;28;20100;-50
2022/05/11 04:22:47;;;;;;;11.27;3.90;;;;;;;22.66;61.33;101005.06;5091016;28;20032;-54
2022/05/11 04:25:15;;;;;;;6.13;3.10;;;;;;;22.32;61.61;100999.03;5077339;28;20039;-52
2022/05/11 04:27:44;;;;;;;6.50;3.03;;;;;;;22.88;60.07;100999.31;5086659;28;20052;-49
2022/05/11 04:30:11;;;;;;;7.10;3.37;;;;;;;22.46;61.49;100999.34;5085801;28;20299;-51
2022/05/11 04:32:37;;;;;;;9.30;3.23;;;;;;;22.78;60.42;101002.88;5079077;28;20304;-49
2022/05/11 04:35:03;;;;;;;28.10;13.07;;;;;;;22.97;59.44;100997.66;5090780;28;20293;-48
2022/05/11 04:37:28;;;;;;;7.28;3.22;;;;;;;22.69;60.00;100999.88;5074205;28;20044;-55
2022/05/11 04:39:53;;;;;;;6.80;3.10;;;;;;;22.65;60.40;101012.44;5074421;28;20044;-51
2022/05/11 04:42:19;;;;;;;8.73;3.10;;;;;;;22.19;63.54;101008.56;5086886;28;20036;-55
2022/05/11 04:44:44;;;;;;;5.73;3.37;;;;;;;22.60;61.47;101001.50;5080383;28;20041;-54
2022/05/11 04:47:13;;;;;;;5.07;2.92;;;;;;;22.26;61.78;101007.47;5094755;28;20059;-55
2022/05/11 04:49:40;;;;;;;9.27;3.30;;;;;;;22.29;61.99;101012.38;5085371;28;20032;-52
2022/05/11 04:52:09;;;;;;;12.77;3.53;;;;;;;22.26;62.51;101002.84;5086906;28;20289;-49
2022/05/11 04:54:40;;;;;;;5.37;2.77;;;;;;;22.69;60.71;101007.22;5092796;28;20288;-53
2022/05/11 04:57:06;;;;;;;6.47;2.53;;;;;;;22.09;62.89;101013.97;5078708;28;20285;-51
2022/05/11 04:59:32;;;;;;;;;;;;;;;22.37;61.42;100998.19;5084487;28;20278;-50
2022/05/11 05:01:59;;;;;;;8.57;3.00;;;;;;;22.23;61.47;101008.81;5088028;28;19962;-50
2022/05/11 05:04:28;;;;;;;7.40;2.87;;;;;;;22.43;60.89;101010.75;5091129;28;20047;-50
2022/05/11 05:06:54;;;;;;;7.50;3.30;;;;;;;22.29;60.17;101012.38;5080799;28;20270;-54
2022/05/11 05:09:21;;;;;;;7.30;2.80;;;;;;;21.97;62.27;101018.84;5077250;28;20284;-55
2022/05/11 05:11:47;;;;;;;7.23;2.93;;;;;;;21.94;62.58;101022.09;5074139;28;20265;-51
2022/05/11 05:14:13;;;;;;;7.35;3.10;;;;;;;22.46;60.46;101015.69;5085585;28;20280;-50
2022/05/11 05:16:39;;;;;;;4.23;2.50;;;;;;;22.45;59.96;101019.47;5093032;28;20052;-51
2022/05/11 05:19:06;;;;;;;6.27;2.77;;;;;;;22.56;59.47;101022.22;5078607;28;20054;-52
2022/05/11 05:21:32;;;;;;;5.87;2.57;;;;;;;22.47;59.66;101030.94;5083554;28;20269;-50
2022/05/11 05:23:58;;;;;;;7.45;2.50;;;;;;;21.82;60.35;101030.50;5087893;28;20313;-53
2022/05/11 05:26:24;;;;;;;6.63;2.33;;;;;;;21.90;59.47;101029.97;5090777;28;20040;-49
2022/05/11 05:31:35;;;;;;;6.10;2.50;;;;;;;22.26;55.67;101027.34;5083875;28;20124;-53
2022/05/11 05:34:01;;;;;;;11.07;2.97;;;;;;;22.20;55.38;101025.69;5087097;28;20281;-50
2022/05/11 05:36:32;;;;;;;6.95;2.15;;;;;;;21.83;55.14;101034.88;5090469;28;20059;-55
2022/05/11 05:38:58;;;;;;;4.70;2.03;;;;;;;21.95;55.01;101023.75;5079020;28;20051;-52
2022/05/11 05:41:25;;;;;;;5.65;1.73;;;;;;;22.09;53.79;101016.69;5081760;28;20336;-54
2022/05/11 05:43:51;;;;;;;16.70;2.67;;;;;;;21.83;53.76;101027.50;5087524;28;20044;-53
2022/05/11 05:46:17;;;;;;;4.97;1.65;;;;;;;22.00;53.37;101031.91;5078122;28;20297;-49
2022/05/11 05:48:44;;;;;;;7.43;2.35;;;;;;;21.92;53.15;101036.81;5072485;28;20036;-54
2022/05/11 05:51:12;;;;;;;;;;;;;;;21.66;53.03;101032.31;5079286;28;20075;-53
2022/05/11 05:53:39;;;;;;;8.30;1.83;;;;;;;21.58;53.56;101029.00;5073999;28;19928;-54
2022/05/11 05:56:06;;;;;;;9.43;2.40;;;;;;;21.92;52.00;101028.63;5076711;28;20054;-54
2022/05/11 05:58:32;;;;;;;11.87;2.30;;;;;;;21.93;51.32;101029.44;5073585;28;20270;-54
2022/05/11 06:00:57;;;;;;;4.88;1.90;;;;;;;21.60;50.87;101032.28;5092987;28;20311;-50
2022/05/11 06:03:26;;;;;;;7.68;2.00;;;;;;;21.42;50.79;101027.28;5081211;28;20092;-54
2022/05/11 06:05:52;;;;;;;10.30;2.30;;;;;;;21.61;50.95;101025.75;5087889;28;20055;-55
2022/05/11 06:08:19;;;;;;;8.95;1.92;;;;;;;21.48;49.94;101026.25;5088900;28;20262;-52
2022/05/11 06:10:46;;;;;;;5.90;1.88;;;;;;;21.74;49.44;101029.91;5077557;28;20040;-54
2022/05/11 06:13:14;;;;;;;13.53;2.60;;;;;;;21.63;49.15;101030.94;5076027;28;20046;-51
2022/05/11 06:15:40;;;;;;;11.17;2.27;;;;;;;21.59;49.09;101030.66;5074490;28;20293;-57
2022/05/11 06:18:09;;;;;;;9.10;1.83;;;;;;;22.04;48.28;101027.56;5074285;28;20274;-53
2022/05/11 06:20:36;;;;;;;11.87;2.10;;;;;;;21.60;47.98;101035.00;5068782;28;20084;-52
2022/05/11 06:23:03;;;;;;;12.97;2.53;;;;;;;21.79;46.57;101031.84;5074242;28;20267;-50
2022/05/11 06:25:30;;;;;;;7.23;1.53;;;;;;;21.51;47.10;101030.34;5070145;28;20273;-54
2022/05/11 06:27:58;;;;;;;7.00;1.97;;;;;;;21.96;46.75;101041.72;5071992;28;20269;-55
2022/05/11 06:30:25;;;;;;;9.50;1.73;;;;;;;21.89;45.96;101033.78;5074598;28;20277;-51
2022/05/11 06:32:51;;;;;;;6.93;1.87;;;;;;;21.90;45.84;101025.34;5074885;28;20270;-51
2022/05/11 06:35:17;;;;;;;8.05;1.60;;;;;;;21.74;45.61;101029.91;5091486;28;20288;-51
2022/05/11 06:37:44;;;;;;;10.45;1.80;;;;;;;21.76;45.43;101026.94;5082748;28;20028;-53
2022/05/11 06:40:12;;;;;;;8.50;1.40;;;;;;;21.17;46.08;101020.63;5084559;28;20048;-54
2022/05/11 06:42:38;;;;;;;8.87;1.50;;;;;;;21.48;45.44;101021.63;5074689;28;20300;-53
2022/05/11 06:45:07;;;;;;;14.63;1.98;;;;;;;21.66;44.75;101018.72;5091657;28;20299;-53
2022/05/11 06:47:33;;;;;;;3.97;1.40;;;;;;;21.75;44.54;101011.69;5069640;28;20056;-54
2022/05/11 06:49:59;;;;;;;8.10;1.42;;;;;;;22.33;43.45;101017.00;5086048;28;20341;-52
2022/05/11 06:52:25;;;;;;;11.48;1.52;;;;;;;22.55;43.29;101015.13;5076927;28;20061;-54
2022/05/11 07:00:19;;;;;;;4.60;1.50;;;;;;;22.18;43.05;101006.09;5081018;28;20281;-54
2022/05/11 07:02:44;;;;;;;6.38;1.38;;;;;;;21.99;42.99;101020.19;5062440;28;20037;-54
2022/05/11 07:05:10;;;;;;;5.90;1.60;;;;;;;21.83;42.99;101032.94;5090752;28;20052;-51
2022/05/11 07:07:36;;;;;;;8.65;1.42;;;;;;;22.19;42.37;101013.16;5074474;28;20040;-53
2022/05/11 07:10:03;;;;;;;12.02;1.30;;;;;;;22.63;42.02;101011.88;5085566;28;20047;-51
2022/05/11 07:12:35;;;;;;;9.10;1.70;;;;;;;22.46;42.86;101014.81;5084579;28;20047;-49
2022/05/11 07:15:01;;;;;;;6.30;1.13;;;;;;;22.87;42.22;101017.56;5078485;28;20049;-52
2022/05/11 07:17:30;;;;;;;4.17;1.60;;;;;;;23.36;41.81;101017.25;5072385;28;20033;-53
2022/05/11 07:19:57;;;;;;;6.73;1.90;;;;;;;23.39;41.68;101022.16;5067195;28;20033;-52
2022/05/11 07:22:23;;;;;;;10.20;1.97;;;;;;;23.10;41.96;101012.63;5072965;28;20093;-52
2022/05/11 07:24:49;;;;;;;6.72;1.70;;;;;;;23.38;41.35;101015.88;5069495;28;20051;-50
2022/05/11 07:27:17;;;;;;;8.23;1.63;;;;;;;23.16;41.42;101022.44;5076535;28;20032;-54
2022/05/11 07:29:43;;;;;;;5.23;1.23;;;;;;;23.91;40.47;101029.00;5074048;28;20060;-53
2022/05/11 07:32:09;;;;;;;5.63;1.25;;;;;;;23.12;41.09;101023.28;5072824;28;20036;-52
2022/05/11 07:34:34;;;;;;;14.10;1.60;;;;;;;23.32;40.75;101012.34;5072886;28;20052;-53
2022/05/11 07:37:00;;;;;;;7.50;1.85;;;;;;;23.45;40.88;101018.31;5076391;28;20044;-54
2022/05/11 07:39:26;;;;;;;5.57;1.27;;;;;;;22.45;43.11;101014.03;5066411;28;20039;-53
2022/05/11 07:41:55;;;;;;;9.77;1.80;;;;;;;22.26;43.25;101027.34;5065923;28;20045;-50
2022/05/11 07:44:21;;;;;;;7.53;1.57;;;;;;;22.45;43.74;101015.91;5070321;28;20059;-50
2022/05/11 07:46:47;;;;;;;4.38;0.95;;;;;;;22.42;43.04;101027.34;5069485;28;20037;-48
2022/05/11 07:49:13;;;;;;;6.38;1.05;;;;;;;22.31;43.79;101015.63;5070798;28;20100;-54
2022/05/11 07:51:41;;;;;;;4.60;1.57;;;;;;;22.17;43.86;101020.78;5068456;28;20053;-51
2022/05/11 07:54:07;;;;;;;4.80;1.17;;;;;;;22.23;44.14;101005.28;5069520;28;20034;-55
2022/05/11 08:02:02;;;;;;;7.97;1.37;;;;;;;22.14;43.10;101022.13;5070473;28;20028;-50
2022/05/11 08:04:27;;;;;;;9.87;1.90;;;;;;;22.53;43.19;101011.88;5067940;28;20052;-55
2022/05/11 08:06:53;;;;;;;8.60;2.20;;;;;;;23.24;42.05;101009.34;5062453;28;20056;-54
2022/05/11 08:09:19;;;;;;;6.72;1.90;;;;;;;22.99;42.42;100995.47;5066442;28;20402;-53
2022/05/11 08:11:45;;;;;;;7.57;2.22;;;;;;;23.02;42.81;101018.66;5063729;28;20183;-55
2022/05/11 08:14:14;;;;;;;8.93;1.30;;;;;;;23.06;42.47;101012.34;5067805;28;20037;-55
2022/05/11 08:16:39;;;;;;;6.43;1.60;;;;;;;23.14;42.27;101012.91;5072142;28;20041;-52
2022/05/11 08:19:04;;;;;;;5.18;1.10;;;;;;;23.00;42.69;101009.94;5077307;28;20063;-53
2022/05/11 08:21:30;;;;;;;8.57;2.07;;;;;;;22.86;43.13;101005.03;5079698;28;20051;-51
2022/05/11 08:23:55;;;;;;;9.55;1.92;;;;;;;23.23;42.86;101002.25;5068803;28;20029;-50
2022/05/11 08:26:20;;;;;;;10.43;2.17;;;;;;;22.55;43.65;101005.06;5072671;28;20052;-51
2022/05/11 08:28:46;;;;;;;7.47;1.60;;;;;;;22.82;43.76;101000.41;5092461;28;20273;-53
2022/05/11 08:33:55;;;;;;;10.57;2.50;;;;;;;23.13;43.13;101008.56;5089922;28;20096;-53
2022/05/11 08:36:24;;;;;;;17.65;3.45;;;;;;;23.50;42.11;101001.91;5073322;28;20018;-56
2022/05/11 08:38:55;;;;;;;7.03;1.60;;;;;;;23.66;42.13;101001.84;5077788;28;20047;-54
2022/05/11 08:41:38;;;;;;;10.97;2.60;;;;;;;22.99;42.57;101017.28;5069122;28;20037;-54
2022/05/11 08:44:14;;;;;;;10.60;2.27;;;;;;;22.97;42.89;101011.28;5079624;28;20025;-55
2022/05/11 08:46:51;;;;;;;9.77;2.57;;;;;;;23.38;42.11;101009.59;5068864;28;20076;-54
2022/05/11 08:49:35;;;;;;;5.23;1.50;;;;;;;23.89;41.61;100998.44;5079410;28;20047;-50
2022/05/11 08:52:04;;;;;;;15.20;1.80;;;;;;;23.74;41.17;100993.06;5069710;28;20040;-51
2022/05/11 08:54:38;;;;;;;9.33;1.97;;;;;;;23.50;41.61;100999.16;5077131;28;20032;-53
2022/05/11 08:57:09;;;;;;;5.10;2.03;;;;;;;24.38;40.21;101004.16;5080934;28;20471;-53
2022/05/11 08:59:37;;;;;;;5.90;1.50;;;;;;;23.92;40.72;101003.34;5076838;28;20059;-54
2022/05/11 09:02:12;;;;;;;8.47;1.50;;;;;;;24.22;40.70;101010.84;5067758;28;20431;-54
2022/05/11 09:04:47;;;;;;;10.23;1.50;;;;;;;24.06;39.92;101000.03;5076431;28;20025;-50
2022/05/11 09:07:12;;;;;;;6.57;1.10;;;;;;;23.63;40.46;100998.59;5096217;28;20032;-52
2022/05/11 09:09:38;;;;;;;4.35;1.27;;;;;;;23.82;39.59;100992.50;5080158;28;20069;-52
2022/05/11 09:12:05;;;;;;;;;;;;;;;24.05;39.26;100995.66;5090322;28;20040;-49
2022/05/11 09:14:35;;;;;;;7.55;2.05;;;;;;;23.85;39.03;100989.19;5086236;28;19913;-51
2022/05/11 09:17:01;;;;;;;5.13;2.40;;;;;;;24.56;38.28;100988.16;5088816;28;20041;-54
2022/05/11 09:19:30;;;;;;;9.88;2.13;;;;;;;24.44;38.26;100992.09;5073641;28;20062;-55
2022/05/11 09:22:14;;;;;;;6.70;0.90;;;;;;;24.41;38.05;100978.19;5079679;28;20037;-52
2022/05/11 09:24:52;;;;;;;16.00;6.17;;;;;;;24.94;37.22;100985.66;5094069;28;20046;-56
2022/05/11 09:27:27;;;;;;;16.33;5.80;;;;;;;25.17;36.42;100986.78;5072016;28;20062;-55
2022/05/11 09:30:04;;;;;;;4.07;1.17;;;;;;;25.89;35.56;100990.56;5091119;28;20036;-53
2022/05/11 09:32:39;;;;;;;5.90;2.43;;;;;;;26.13;34.49;101002.53;5089461;28;20029;-53
2022/05/11 09:35:35;;;;;;;5.90;1.80;;;;;;;27.18;33.71;101006.00;5079196;28;20068;-53
2022/05/11 09:38:19;;;;;;;8.70;2.73;;;;;;;27.22;33.46;100997.97;5088032;28;20048;-51
2022/05/11 09:40:56;;;;;;;19.00;2.10;;;;;;;27.17;33.20;100993.41;5075974;28;20089;-52
2022/05/11 09:43:29;;;;;;;3.23;1.10;;;;;;;28.24;31.57;101001.59;5063117;28;20554;-53
2022/05/11 09:45:55;;;;;;;9.57;1.43;;;;;;;28.62;31.23;101002.00;5088554;28;20052;-54
2022/05/11 09:48:23;;;;;;;;;;;;;;;28.41;31.23;101001.72;5071218;28;20044;-52
2022/05/11 09:50:54;;;;;;;7.30;2.23;;;;;;;29.29;30.75;101002.16;5072969;28;19923;-56
2022/05/11 09:53:29;;;;;;;9.20;1.70;;;;;;;29.42;30.46;101008.72;5077768;28;20092;-55
2022/05/11 09:55:55;;;;;;;7.60;1.30;;;;;;;29.71;29.94;101012.84;5072649;28;20044;-54
2022/05/11 09:58:32;;;;;;;7.20;1.40;;;;;;;28.69;30.30;101004.31;5076700;28;20056;-56
2022/05/11 10:01:13;;;;;;;6.53;1.17;;;;;;;29.11;29.53;100998.53;5092615;28;20104;-55
2022/05/11 10:03:45;;;;;;;11.43;1.07;;;;;;;30.29;28.67;101017.41;5081565;28;20041;-54
2022/05/11 10:06:12;;;;;;;6.93;1.20;;;;;;;30.49;28.95;100996.59;5085018;28;20032;-50
2022/05/11 10:08:43;;;;;;;5.97;1.40;;;;;;;30.72;28.55;101016.56;5076262;28;20036;-55
2022/05/11 10:11:16;;;;;;;4.68;1.00;;;;;;;30.74;28.16;101010.69;5091469;28;20056;-54
2022/05/11 10:14:01;;;;;;;6.70;1.42;;;;;;;31.56;27.32;101003.34;5079118;28;20036;-52
2022/05/11 10:22:25;;;;;;;5.25;1.15;;;;;;;31.73;26.65;101003.25;5075307;28;20065;-53
2022/05/11 10:25:13;;;;;;;9.15;1.33;;;;;;;32.09;26.43;100995.50;5090601;28;20483;-54
2022/05/11 10:28:09;;;;;;;7.15;1.27;;;;;;;32.95;25.90;100998.84;5066241;28;20051;-50
2022/05/11 10:30:49;;;;;;;3.25;1.15;;;;;;;33.07;25.91;100989.75;5082229;28;20033;-55
2022/05/11 10:33:57;;;;;;;11.38;1.60;;;;;;;33.43;25.27;100990.88;5091757;28;20042;-50
2022/05/11 10:36:58;;;;;;;8.95;3.08;;;;;;;32.45;26.18;100994.00;5086447;28;20100;-54
2022/05/11 10:39:31;;;;;;;7.78;2.38;;;;;;;32.37;25.99;100992.16;5075337;28;20033;-50
2022/05/11 10:42:12;;;;;;;9.90;2.92;;;;;;;33.08;25.19;101006.00;5074431;28;20040;-55
2022/05/11 10:44:59;;;;;;;5.28;1.58;;;;;;;31.50;26.77;100997.22;5087734;28;20044;-54
2022/05/11 10:47:56;;;;;;;6.38;1.40;;;;;;;33.50;25.61;101002.22;5062169;28;20043;-54
2022/05/11 10:50:59;;;;;;;12.40;1.45;;;;;;;32.65;25.86;100999.81;5082767;28;20103;-53
2022/05/11 10:53:42;;;;;;;7.68;2.47;;;;;;;34.34;24.19;100999.84;5091294;28;20029;-49
2022/05/11 10:56:14;;;;;;;5.97;1.15;;;;;;;31.85;26.36;100994.22;5084586;28;20083;-53
2022/05/11 10:59:15;;;;;;;5.40;1.88;;;;;;;33.26;25.46;100981.66;5080718;28;20041;-54
2022/05/11 11:02:00;;;;;;;9.82;2.55;;;;;;;33.79;24.62;100991.97;5053232;28;20045;-53
2022/05/11 11:04:56;;;;;;;6.88;1.92;;;;;;;33.18;25.10;100982.56;5085849;28;20032;-56
2022/05/11 11:07:35;;;;;;;10.43;2.15;;;;;;;32.46;25.36;100990.09;5078463;28;20028;-56
2022/05/11 11:10:10;;;;;;;6.40;2.25;;;;;;;33.63;25.62;100982.75;5086699;28;20039;-54
2022/05/11 11:13:04;;;;;;;6.80;1.83;;;;;;;34.50;23.83;100990.78;5087587;28;20044;-53
2022/05/11 11:15:32;;;;;;;6.78;1.73;;;;;;;34.14;24.51;100983.09;5062628;28;20032;-54
2022/05/11 11:18:01;;;;;;;7.53;1.70;;;;;;;35.38;23.20;100984.19;5064549;28;20059;-55
2022/05/11 11:20:31;;;;;;;8.63;2.70;;;;;;;35.10;23.40;100978.78;5074039;28;20029;-54
2022/05/11 11:23:16;;;;;;;12.32;2.92;;;;;;;33.73;24.51;100971.19;5073903;28;20053;-53
2022/05/11 11:25:54;;;;;;;6.85;2.00;;;;;;;35.62;22.86;100965.66;5062128;28;20041;-53
2022/05/11 11:28:25;;;;;;;7.20;2.60;;;;;;;35.22;23.11;100972.31;5073082;28;20033;-52
2022/05/11 11:30:57;;;;;;;8.95;2.10;;;;;;;36.49;22.17;100969.31;5076240;28;20047;-56
2022/05/11 11:33:24;;;;;;;16.20;2.00;;;;;;;35.20;22.80;100967.09;5068912;28;20427;-50
2022/05/11 11:36:04;;;;;;;7.25;2.22;;;;;;;35.11;23.52;100969.28;5067185;28;20031;-53
2022/05/11 11:38:43;;;;;;;5.55;1.50;;;;;;;35.99;22.03;100956.84;5061712;28;20029;-53
2022/05/11 11:41:12;;;;;;;7.15;1.88;;;;;;;35.53;23.05;100951.16;5056383;28;20034;-55
2022/05/11 11:44:00;;;;;;;7.65;2.00;;;;;;;34.36;23.42;100958.66;5075343;28;20104;-51
2022/05/11 11:46:33;;;;;;;10.63;2.85;;;;;;;34.99;23.04;100951.50;5073205;28;20064;-55
2022/05/11 11:49:18;;;;;;;10.32;3.15;;;;;;;34.63;23.31;100950.66;5072543;28;20045;-53
2022/05/11 11:51:50;;;;;;;8.00;2.08;;;;;;;36.48;22.14;100948.22;5074814;28;20060;-56
2022/05/11 11:54:37;;;;;;;13.40;3.40;;;;;;;36.40;22.51;100941.72;5072599;28;20047;-54
2022/05/11 11:57:12;;;;;;;5.82;1.65;;;;;;;35.48;22.60;100943.88;5074287;28;20056;-51
2022/05/11 11:59:49;;;;;;;10.10;2.57;;;;;;;36.73;21.67;100946.66;5067905;28;20033;-54
2022/05/11 12:02:40;;;;;;;10.80;1.48;;;;;;;36.54;22.08;100941.97;5076557;28;20044;-53
2022/05/11 12:05:28;;;;;;;3.88;1.67;;;;;;;36.89;21.58;100934.56;5072866;28;20062;-54